Time;durP1;ratioP1;P1;durP2;ratioP2;P2;SDS_P1;SDS_P2;PMS_P1;PMS_P2;Temp;Humidity;BMP_temperature;BMP_pressure;BME280_temperature;BME280_humidity;BME280_pressure;Samples;Min_cycle;Max_cycle;Signal;HPM_P1;HPM_P2
2024/01/09 00:00:55;;;;;;;12.82;8.40;;;;;;;-4.49;100.00;93322.34;2092071;28;20473;-77
2024/01/09 00:01:56;;;;;;;16.02;8.98;;;;;;;-4.48;100.00;93329.84;2089232;28;20051;-78
2024/01/09 00:02:57;;;;;;;14.80;8.80;;;;;;;-4.49;100.00;93323.13;2099755;28;20028;-79
2024/01/09 00:03:58;;;;;;;14.73;9.48;;;;;;;-4.71;100.00;93329.38;2099907;28;20028;-78
2024/01/09 00:04:59;;;;;;;16.98;9.20;;;;;;;-4.73;100.00;93328.94;2101386;28;20056;-77
2024/01/09 00:06:00;;;;;;;16.23;9.23;;;;;;;-4.72;100.00;93321.88;2097697;28;20050;-77
2024/01/09 00:07:01;;;;;;;15.10;9.25;;;;;;;-4.65;100.00;93325.53;2090664;28;20462;-78
2024/01/09 00:08:02;;;;;;;15.60;9.18;;;;;;;-4.50;100.00;93328.66;2105640;28;20534;-76
2024/01/09 00:09:10;;;;;;;16.25;9.10;;;;;;;-4.50;100.00;93331.28;2106907;28;20892;-77
2024/01/09 00:10:11;;;;;;;16.73;9.80;;;;;;;-4.53;100.00;93330.03;2106724;28;20461;-76
2024/01/09 00:11:13;;;;;;;13.73;8.55;;;;;;;-4.29;100.00;93321.63;2106614;28;20457;-77
2024/01/09 00:12:14;;;;;;;15.10;9.23;;;;;;;-4.63;100.00;93325.97;2096641;28;20028;-77
2024/01/09 00:13:15;;;;;;;15.57;9.73;;;;;;;-4.72;100.00;93325.25;2093009;28;20451;-76
2024/01/09 00:14:19;;;;;;;14.18;9.20;;;;;;;-4.67;100.00;93329.50;2097743;28;20094;-77
2024/01/09 00:15:20;;;;;;;14.38;9.00;;;;;;;-4.48;100.00;93323.88;2100192;28;20460;-77
2024/01/09 00:16:21;;;;;;;14.75;9.07;;;;;;;-4.71;100.00;93324.16;2106165;28;20457;-78
2024/01/09 00:19:19;;;;;;;14.25;9.35;;;;;;;-4.66;100.00;93321.38;2096580;28;20525;-76
2024/01/09 00:20:23;;;;;;;14.10;9.00;;;;;;;-4.60;100.00;93325.34;2098307;28;20494;-78
2024/01/09 00:22:05;;;;;;;14.63;9.25;;;;;;;-4.58;100.00;93331.00;2098542;28;20466;-77
2024/01/09 00:23:06;;;;;;;13.48;8.60;;;;;;;-4.49;100.00;93324.97;2098155;28;20454;-77
2024/01/09 00:24:47;;;;;;;13.50;8.50;;;;;;;-4.43;100.00;93319.25;2089488;28;20455;-78
2024/01/09 00:25:48;;;;;;;12.88;7.72;;;;;;;-4.63;100.00;93323.34;2098948;28;20050;-79
2024/01/09 00:26:49;;;;;;;13.25;7.93;;;;;;;-4.44;100.00;93322.94;2096671;28;20451;-79
2024/01/09 00:27:50;;;;;;;13.60;8.52;;;;;;;-4.61;100.00;93325.63;2089137;28;20470;-79
2024/01/09 00:28:51;;;;;;;16.17;8.93;;;;;;;-4.75;100.00;93335.53;2089585;28;20028;-76
2024/01/09 00:34:21;;;;;;;12.30;7.93;;;;;;;-4.76;100.00;93336.63;2098237;28;21261;-76
2024/01/09 00:36:09;;;;;;;13.13;8.02;;;;;;;-4.59;100.00;93333.94;2097295;28;20465;-76
2024/01/09 00:39:15;;;;;;;12.85;7.43;;;;;;;-4.76;100.00;93337.38;2097750;28;20489;-78
2024/01/09 00:42:54;;;;;;;12.85;7.60;;;;;;;-4.75;100.00;93331.06;2098293;28;20982;-77
2024/01/09 00:43:55;;;;;;;11.50;7.68;;;;;;;-4.74;100.00;93331.84;2102310;28;20934;-77
2024/01/09 00:44:56;;;;;;;14.00;8.60;;;;;;;-4.74;100.00;93332.63;2081096;28;20463;-76
2024/01/09 00:45:57;;;;;;;14.75;9.10;;;;;;;-4.72;100.00;93330.47;2089174;28;20029;-77
2024/01/09 00:46:58;;;;;;;11.43;8.05;;;;;;;-4.68;100.00;93333.97;2105595;28;20031;-76
2024/01/09 00:48:05;;;;;;;16.88;8.68;;;;;;;-4.46;100.00;93324.34;2097793;28;20131;-77
2024/01/09 00:49:29;;;;;;;15.63;9.57;;;;;;;-4.49;100.00;93330.94;2098260;28;20536;-78
2024/01/09 00:50:31;;;;;;;13.82;8.68;;;;;;;-4.59;100.00;93332.06;2115483;27;20464;-77
2024/01/09 00:51:38;;;;;;;14.32;7.97;;;;;;;-4.58;100.00;93331.00;2114141;28;20474;-76
2024/01/09 00:52:38;;;;;;;14.50;8.40;;;;;;;-4.77;100.00;93335.09;2114148;28;20437;-77
2024/01/09 00:53:39;;;;;;;16.50;8.70;;;;;;;-4.61;100.00;93329.03;2119675;27;20027;-77
2024/01/09 00:55:10;;;;;;;14.15;9.50;;;;;;;-4.47;100.00;93336.63;2114334;28;20027;-77
2024/01/09 00:56:31;;;;;;;13.25;8.38;;;;;;;-4.48;100.00;93331.69;2103396;28;20093;-77
2024/01/09 00:58:00;;;;;;;13.18;8.85;;;;;;;-4.56;100.00;93339.28;2094763;28;21375;-78
2024/01/09 01:03:25;;;;;;;11.50;7.95;;;;;;;-4.69;100.00;93342.88;2102669;28;20453;-77
2024/01/09 01:04:26;;;;;;;14.25;8.45;;;;;;;-4.76;100.00;93336.63;2092206;28;20471;-78
2024/01/09 01:09:52;;;;;;;10.25;7.13;;;;;;;-4.72;100.00;93340.13;2096690;28;20031;-78
2024/01/09 01:17:09;;;;;;;11.35;7.47;;;;;;;-4.70;100.00;93336.09;2088806;28;20816;-77
2024/01/09 01:18:10;;;;;;;12.80;8.02;;;;;;;-4.77;100.00;93340.31;2091366;28;20454;-78
2024/01/09 01:19:12;;;;;;;15.68;8.63;;;;;;;-5.14;100.00;93340.72;2088072;28;20483;-77
2024/01/09 01:21:06;;;;;;;12.07;7.93;;;;;;;-4.89;100.00;93340.97;2096954;28;20477;-78
2024/01/09 01:22:07;;;;;;;16.27;8.05;;;;;;;-4.53;100.00;93342.31;2104802;28;20446;-78
2024/01/09 01:23:08;;;;;;;15.80;9.10;;;;;;;-4.96;100.00;93341.47;2105467;28;20996;-77
2024/01/09 01:24:09;;;;;;;15.27;9.68;;;;;;;-4.97;100.00;93345.13;2089325;28;20156;-76
2024/01/09 01:25:10;;;;;;;13.63;8.93;;;;;;;-4.99;100.00;93343.91;2088717;28;20032;-78
2024/01/09 01:26:11;;;;;;;14.82;8.75;;;;;;;-4.88;100.00;93345.09;2096904;28;20252;-78
2024/01/09 01:27:12;;;;;;;16.30;9.60;;;;;;;-4.87;100.00;93349.25;2096510;28;20082;-78
2024/01/09 01:28:13;;;;;;;13.30;8.93;;;;;;;-4.95;100.00;93350.03;2101811;28;20515;-77
2024/01/09 01:31:11;;;;;;;14.10;8.00;;;;;;;-4.92;100.00;93346.78;2110472;28;20483;-78
2024/01/09 01:32:16;;;;;;;15.70;9.40;;;;;;;-4.95;100.00;93342.22;2104732;28;20437;-78
2024/01/09 01:33:16;;;;;;;14.38;9.18;;;;;;;-4.88;100.00;93353.66;2097907;28;20458;-77
2024/01/09 01:34:17;;;;;;;15.25;9.57;;;;;;;-5.06;100.00;93355.56;2097813;28;20021;-77
2024/01/09 01:35:18;;;;;;;17.60;9.63;;;;;;;-4.97;100.00;93352.94;2098572;28;20056;-77
2024/01/09 01:36:19;;;;;;;16.60;9.43;;;;;;;-5.13;100.00;93355.31;2104413;28;20020;-79
2024/01/09 01:37:23;;;;;;;16.33;9.35;;;;;;;-5.07;100.00;93351.44;2108390;28;20464;-78
2024/01/09 01:40:21;;;;;;;13.55;8.18;;;;;;;-5.16;100.00;93357.75;2101560;28;20504;-78
2024/01/09 01:41:22;;;;;;;15.50;8.93;;;;;;;-5.11;100.00;93353.13;2092450;28;20454;-78
2024/01/09 01:44:51;;;;;;;12.55;8.38;;;;;;;-5.05;100.00;93351.13;2102255;28;20047;-79
2024/01/09 01:45:52;;;;;;;13.63;8.43;;;;;;;-5.17;100.00;93353.63;2105230;28;20453;-77
2024/01/09 01:47:17;;;;;;;16.02;9.57;;;;;;;-5.18;100.00;93354.69;2105362;28;20842;-78
2024/01/09 01:48:18;;;;;;;14.52;8.55;;;;;;;-5.37;100.00;93352.44;2097133;28;20461;-77
2024/01/09 01:49:20;;;;;;;15.77;10.00;;;;;;;-5.28;100.00;93358.41;2097161;28;20871;-78
2024/01/09 01:50:21;;;;;;;14.05;9.35;;;;;;;-5.18;100.00;93359.91;2105276;28;20452;-77
2024/01/09 01:51:23;;;;;;;16.30;9.52;;;;;;;-5.46;100.00;93356.91;2097066;28;20461;-79
2024/01/09 01:52:24;;;;;;;14.23;9.88;;;;;;;-5.45;100.00;93363.63;2088241;28;20546;-78
2024/01/09 01:53:29;;;;;;;17.42;10.75;;;;;;;-5.48;100.00;93364.28;2088778;28;20458;-76
2024/01/09 01:54:35;;;;;;;17.38;10.38;;;;;;;-5.54;100.00;93355.06;2105242;28;20886;-77
2024/01/09 01:55:36;;;;;;;17.45;9.45;;;;;;;-5.65;100.00;93365.81;2096448;28;20455;-76
2024/01/09 01:56:38;;;;;;;16.73;9.05;;;;;;;-5.45;100.00;93364.41;2097118;28;21209;-78
2024/01/09 01:57:40;;;;;;;18.40;10.82;;;;;;;-5.46;100.00;93367.31;2097071;28;20550;-78
2024/01/09 01:58:41;;;;;;;15.68;10.02;;;;;;;-5.46;100.00;93368.09;2097861;28;20497;-78
2024/01/09 01:59:45;;;;;;;14.57;8.95;;;;;;;-5.62;100.00;93365.22;2104328;28;20433;-77
2024/01/09 02:00:47;;;;;;;16.83;9.55;;;;;;;-5.60;100.00;93354.47;2098088;28;20028;-78
2024/01/09 02:01:48;;;;;;;18.95;9.77;;;;;;;-5.51;100.00;93357.06;2105083;28;20528;-77
2024/01/09 02:02:50;;;;;;;18.00;10.55;;;;;;;-5.63;100.00;93371.47;2096650;28;21193;-76
2024/01/09 02:03:52;;;;;;;13.63;9.13;;;;;;;-5.51;100.00;93368.25;2105192;28;20474;-78
2024/01/09 02:04:53;;;;;;;14.75;9.32;;;;;;;-5.35;100.00;93364.09;2102201;28;20521;-77
2024/01/09 02:05:55;;;;;;;15.32;9.50;;;;;;;-5.59;100.00;93356.00;2105200;28;20978;-79
2024/01/09 02:06:57;;;;;;;13.85;9.25;;;;;;;-5.60;100.00;93350.03;2092605;28;20462;-77
2024/01/09 02:07:59;;;;;;;16.45;9.45;;;;;;;-5.58;100.00;93358.28;2096211;28;20458;-78
2024/01/09 02:09:01;;;;;;;18.08;10.68;;;;;;;-5.61;100.00;93348.50;2097216;28;21016;-76
2024/01/09 02:10:03;;;;;;;17.10;9.55;;;;;;;-5.80;100.00;93348.03;2097643;28;20522;-78
2024/01/09 02:11:04;;;;;;;15.07;10.10;;;;;;;-5.75;100.00;93350.53;2105411;28;20502;-77
2024/01/09 02:12:06;;;;;;;14.55;9.38;;;;;;;-5.68;100.00;93350.03;2104704;28;21131;-76
2024/01/09 02:13:07;;;;;;;20.65;9.80;;;;;;;-5.67;100.00;93352.31;2104158;28;20498;-78
2024/01/09 02:14:08;;;;;;;20.30;10.48;;;;;;;-5.84;100.00;93347.91;2094776;28;20850;-78
2024/01/09 02:15:10;;;;;;;14.82;9.27;;;;;;;-5.78;100.00;93339.94;2097381;28;20443;-77
2024/01/09 02:16:10;;;;;;;18.42;9.75;;;;;;;-5.73;100.00;93345.75;2096833;28;20013;-78
2024/01/09 02:17:12;;;;;;;14.38;9.00;;;;;;;-5.72;100.00;93346.53;2087997;28;20447;-77
2024/01/09 02:18:13;;;;;;;20.70;11.25;;;;;;;-5.54;100.00;93350.63;2088588;28;20576;-78
2024/01/09 02:19:16;;;;;;;16.05;9.77;;;;;;;-5.54;100.00;93352.47;2096112;28;20450;-77
2024/01/09 02:20:22;;;;;;;16.00;9.10;;;;;;;-5.60;100.00;93349.28;2097098;28;20442;-76
2024/01/09 02:21:23;;;;;;;14.90;9.80;;;;;;;-5.85;100.00;93348.22;2096937;28;20947;-78
2024/01/09 02:22:24;;;;;;;19.00;9.60;;;;;;;-5.73;100.00;93342.38;2093660;28;20469;-76
2024/01/09 02:25:34;;;;;;;17.58;9.52;;;;;;;-6.46;100.00;93350.78;2131069;27;20187;-79
2024/01/09 02:26:43;;;;;;;17.02;10.15;;;;;;;-6.27;100.00;93347.16;2112733;28;20088;-78
2024/01/09 02:27:55;;;;;;;14.55;9.18;;;;;;;-6.44;100.00;93353.88;2105796;28;20457;-78
2024/01/09 02:29:02;;;;;;;13.85;9.40;;;;;;;-6.54;100.00;93355.97;2121167;28;20548;-77
2024/01/09 02:30:04;;;;;;;15.25;9.85;;;;;;;-6.53;100.00;93352.31;2120984;27;20845;-77
2024/01/09 02:31:05;;;;;;;15.45;9.43;;;;;;;-6.41;100.00;93348.06;2119279;27;20449;-78
2024/01/09 02:32:19;;;;;;;14.20;9.05;;;;;;;-6.49;100.00;93351.41;2120459;28;20447;-77
2024/01/09 02:33:20;;;;;;;16.55;9.18;;;;;;;-6.36;100.00;93350.50;2106177;28;20480;-78
2024/01/09 02:34:23;;;;;;;14.63;9.18;;;;;;;-6.15;100.00;93349.91;2104165;28;20464;-78
2024/01/09 02:35:24;;;;;;;17.52;9.48;;;;;;;-6.28;100.00;93345.63;2112836;28;20457;-77
2024/01/09 02:36:26;;;;;;;16.65;9.73;;;;;;;-6.11;100.00;93343.78;2118180;28;20449;-77
2024/01/09 02:37:28;;;;;;;15.80;9.80;;;;;;;-6.21;100.00;93351.13;2121973;27;20474;-79
2024/01/09 02:38:29;;;;;;;17.73;10.20;;;;;;;-6.07;100.00;93346.56;2120985;28;20525;-78
2024/01/09 02:39:30;;;;;;;16.73;10.00;;;;;;;-6.22;100.00;93337.38;2112596;28;20488;-78
2024/01/09 02:40:31;;;;;;;17.33;9.93;;;;;;;-6.47;100.00;93344.06;2113021;28;20487;-79
2024/01/09 02:41:38;;;;;;;17.33;10.18;;;;;;;-6.13;100.00;93345.19;2109711;28;20023;-79
2024/01/09 02:42:39;;;;;;;18.17;10.30;;;;;;;-6.03;100.00;93344.09;2119789;28;20114;-79
2024/01/09 02:43:40;;;;;;;14.02;9.48;;;;;;;-6.12;100.00;93339.66;2115554;27;20985;-79
2024/01/09 02:44:41;;;;;;;17.95;10.13;;;;;;;-5.98;100.00;93343.94;2120845;28;20050;-78
2024/01/09 02:45:41;;;;;;;15.73;9.80;;;;;;;-6.03;100.00;93349.31;2112433;28;20047;-78
2024/01/09 02:46:46;;;;;;;15.43;9.40;;;;;;;-5.92;100.00;93342.75;2104681;28;20028;-78
2024/01/09 02:47:47;;;;;;;14.85;9.15;;;;;;;-5.95;100.00;93349.31;2112522;28;20705;-78
2024/01/09 02:48:48;;;;;;;17.17;9.95;;;;;;;-6.17;100.00;93337.22;2104166;28;20034;-79
2024/01/09 02:49:49;;;;;;;13.45;8.98;;;;;;;-5.93;100.00;93336.75;2104147;28;20059;-78
2024/01/09 02:50:50;;;;;;;16.67;9.93;;;;;;;-6.11;100.00;93341.19;2112306;28;20111;-77
2024/01/09 02:51:51;;;;;;;17.23;10.25;;;;;;;-6.16;100.00;93337.97;2112306;28;20821;-77
2024/01/09 02:52:59;;;;;;;16.30;10.40;;;;;;;-6.07;100.00;93341.34;2120694;28;20031;-79
2024/01/09 02:54:00;;;;;;;15.73;9.13;;;;;;;-5.89;100.00;93339.47;2121592;27;20512;-78
2024/01/09 02:55:01;;;;;;;17.30;10.40;;;;;;;-6.01;100.00;93341.94;2120663;28;20441;-79
2024/01/09 02:56:02;;;;;;;13.95;9.25;;;;;;;-5.91;100.00;93345.00;2121512;27;20031;-78
2024/01/09 02:57:04;;;;;;;16.58;10.38;;;;;;;-6.13;100.00;93351.16;2120967;28;20463;-77
2024/01/09 02:58:05;;;;;;;16.35;9.88;;;;;;;-6.08;100.00;93347.63;2121452;27;20885;-78
2024/01/09 02:59:05;;;;;;;16.75;9.88;;;;;;;-5.98;100.00;93347.31;2121585;28;20463;-78
2024/01/09 03:00:08;;;;;;;15.98;9.95;;;;;;;-5.92;100.00;93340.91;2119914;28;20031;-79
2024/01/09 03:01:09;;;;;;;17.95;10.55;;;;;;;-5.99;100.00;93342.44;2120473;28;20030;-77
2024/01/09 03:02:10;;;;;;;15.80;9.30;;;;;;;-5.97;100.00;93340.28;2120280;28;20567;-79
2024/01/09 03:03:11;;;;;;;18.33;9.93;;;;;;;-5.98;100.00;93338.75;2120908;28;20464;-79
2024/01/09 03:04:12;;;;;;;16.23;10.35;;;;;;;-6.01;100.00;93336.75;2120777;28;20027;-78
2024/01/09 03:05:13;;;;;;;18.02;10.73;;;;;;;-5.92;100.00;93340.16;2120382;28;20101;-77
2024/01/09 03:06:14;;;;;;;16.15;9.32;;;;;;;-5.83;100.00;93333.06;2111587;28;20031;-79
2024/01/09 03:07:15;;;;;;;16.02;10.13;;;;;;;-5.96;100.00;93345.19;2106853;28;20888;-77
2024/01/09 03:08:16;;;;;;;18.70;10.40;;;;;;;-5.97;100.00;93332.47;2110675;28;20027;-78
2024/01/09 03:09:17;;;;;;;15.75;9.73;;;;;;;-5.91;100.00;93331.22;2120891;28;20054;-78
2024/01/09 03:10:18;;;;;;;17.05;9.50;;;;;;;-6.03;100.00;93334.47;2120735;28;20031;-79
2024/01/09 03:11:40;;;;;;;16.02;10.15;;;;;;;-6.21;100.00;93336.28;2117561;28;20028;-78
2024/01/09 03:12:41;;;;;;;15.05;9.18;;;;;;;-6.44;100.00;93343.47;2112322;28;20028;-78
2024/01/09 03:13:56;;;;;;;18.65;10.25;;;;;;;-6.21;100.00;93331.09;2116306;28;20507;-78
2024/01/09 03:14:56;;;;;;;16.55;9.55;;;;;;;-6.30;100.00;93337.38;2112210;28;20792;-78
2024/01/09 03:15:57;;;;;;;22.05;9.48;;;;;;;-6.57;100.00;93335.78;2105572;28;20438;-78
2024/01/09 03:17:01;;;;;;;17.58;10.13;;;;;;;-6.21;100.00;93332.94;2103719;28;20032;-79
2024/01/09 03:18:04;;;;;;;18.27;9.98;;;;;;;-6.20;100.00;93334.47;2110663;28;20676;-78
2024/01/09 03:19:11;;;;;;;17.77;11.35;;;;;;;-6.19;100.00;93334.16;2112206;28;20510;-77
2024/01/09 03:20:15;;;;;;;16.70;9.70;;;;;;;-6.01;100.00;93332.34;2111987;28;20914;-77
2024/01/09 03:21:16;;;;;;;15.82;9.70;;;;;;;-6.16;100.00;93328.34;2112303;28;20809;-77
2024/01/09 03:22:20;;;;;;;18.77;10.88;;;;;;;-5.93;100.00;93333.38;2111757;28;20453;-78
2024/01/09 03:23:24;;;;;;;17.02;10.57;;;;;;;-6.21;100.00;93332.94;2112501;28;20465;-78
2024/01/09 03:24:25;;;;;;;19.13;10.32;;;;;;;-6.26;100.00;93323.44;2112778;28;20511;-78
2024/01/09 03:25:26;;;;;;;15.90;9.60;;;;;;;-6.14;100.00;93328.81;2111659;28;20996;-78
2024/01/09 03:26:27;;;;;;;17.85;10.63;;;;;;;-6.15;100.00;93331.69;2112074;28;20484;-78
2024/01/09 03:27:28;;;;;;;16.65;10.48;;;;;;;-6.01;100.00;93323.75;2111876;28;20992;-78
2024/01/09 03:28:29;;;;;;;15.90;9.98;;;;;;;-6.15;100.00;93329.09;2112457;28;20019;-79
2024/01/09 03:29:30;;;;;;;18.45;10.68;;;;;;;-6.16;100.00;93327.56;2111437;28;20449;-77
2024/01/09 03:30:31;;;;;;;16.52;10.13;;;;;;;-6.14;100.00;93328.06;2104905;28;20832;-77
2024/01/09 03:31:37;;;;;;;15.38;9.48;;;;;;;-6.12;100.00;93323.28;2094740;28;20033;-77
2024/01/09 03:32:37;;;;;;;17.35;11.10;;;;;;;-6.17;100.00;93324.22;2095576;28;20476;-77
2024/01/09 03:33:39;;;;;;;15.48;9.98;;;;;;;-6.36;100.00;93327.13;2107948;28;20077;-79
2024/01/09 03:34:40;;;;;;;19.95;10.55;;;;;;;-6.21;100.00;93325.88;2112852;28;20758;-79
2024/01/09 03:35:41;;;;;;;19.17;9.73;;;;;;;-6.21;100.00;93331.09;2112572;28;20420;-77
2024/01/09 03:36:45;;;;;;;17.38;10.10;;;;;;;-6.07;100.00;93328.34;2106456;28;20438;-79
2024/01/09 03:37:46;;;;;;;17.75;10.40;;;;;;;-6.06;100.00;93329.09;2097836;28;20036;-77
2024/01/09 03:38:51;;;;;;;17.77;10.20;;;;;;;-6.28;100.00;93330.00;2098114;28;20490;-79
2024/01/09 03:39:51;;;;;;;16.45;11.10;;;;;;;-6.34;100.00;93332.00;2103958;28;20457;-77
2024/01/09 03:40:52;;;;;;;16.33;9.75;;;;;;;-6.31;100.00;93331.41;2105862;28;20493;-79
2024/01/09 03:41:53;;;;;;;18.85;10.02;;;;;;;-6.22;100.00;93323.59;2098445;28;20024;-79
2024/01/09 03:42:54;;;;;;;17.27;11.20;;;;;;;-6.17;100.00;93326.06;2097065;28;20028;-79
2024/01/09 03:43:55;;;;;;;17.70;10.45;;;;;;;-6.07;100.00;93333.53;2095986;28;20039;-78
2024/01/09 03:44:56;;;;;;;15.48;9.63;;;;;;;-6.04;100.00;93322.53;2089789;28;20474;-77
2024/01/09 03:45:57;;;;;;;16.23;10.98;;;;;;;-6.12;100.00;93320.69;2098023;28;20377;-77
2024/01/09 03:46:58;;;;;;;16.48;10.82;;;;;;;-6.12;100.00;93328.50;2097536;28;20111;-78
2024/01/09 03:47:59;;;;;;;17.15;10.13;;;;;;;-6.27;100.00;93323.75;2089807;28;20040;-78
2024/01/09 03:49:00;;;;;;;18.70;10.80;;;;;;;-6.13;100.00;93321.78;2098005;28;20050;-78
2024/01/09 03:50:01;;;;;;;16.90;10.38;;;;;;;-5.97;100.00;93322.06;2098780;28;20032;-79
2024/01/09 03:51:02;;;;;;;17.88;10.80;;;;;;;-6.07;100.00;93324.97;2104454;28;20030;-79
2024/01/09 03:52:03;;;;;;;18.10;11.82;;;;;;;-5.93;100.00;93325.56;2097440;28;20047;-78
2024/01/09 03:53:04;;;;;;;18.17;10.85;;;;;;;-5.98;100.00;93320.53;2089855;28;20451;-78
2024/01/09 03:54:05;;;;;;;16.13;10.02;;;;;;;-6.27;100.00;93329.72;2098106;28;20504;-78
2024/01/09 03:55:08;;;;;;;18.55;11.00;;;;;;;-6.16;100.00;93330.94;2106289;28;20020;-78
2024/01/09 03:56:09;;;;;;;19.10;9.85;;;;;;;-6.16;100.00;93317.94;2097722;28;20132;-78
2024/01/09 03:57:10;;;;;;;15.95;10.38;;;;;;;-6.04;100.00;93334.78;2089123;28;20485;-78
2024/01/09 03:58:11;;;;;;;16.02;10.63;;;;;;;-6.11;100.00;93319.63;2106561;28;20089;-77
2024/01/09 03:59:12;;;;;;;18.90;10.15;;;;;;;-6.29;100.00;93326.66;2106287;28;20457;-78
2024/01/09 04:00:14;;;;;;;18.48;11.38;;;;;;;-6.12;100.00;93334.47;2094494;28;20458;-80
2024/01/09 04:01:15;;;;;;;18.52;10.45;;;;;;;-6.05;100.00;93328.81;2094199;28;20485;-78
2024/01/09 04:02:16;;;;;;;17.02;10.45;;;;;;;-6.15;100.00;93337.66;2097419;28;20454;-77
2024/01/09 04:03:17;;;;;;;15.30;10.02;;;;;;;-6.12;100.00;93331.09;2106377;28;20031;-77
2024/01/09 04:04:18;;;;;;;16.38;10.60;;;;;;;-5.92;100.00;93338.31;2106530;28;20718;-77
2024/01/09 04:05:18;;;;;;;19.38;10.55;;;;;;;-6.30;100.00;93340.72;2100767;28;20074;-78
2024/01/09 04:06:19;;;;;;;18.77;10.00;;;;;;;-6.21;100.00;93340.72;2099488;28;20032;-77
2024/01/09 04:07:20;;;;;;;18.75;10.80;;;;;;;-6.03;100.00;93333.69;2098040;28;20036;-77
2024/01/09 04:08:21;;;;;;;17.23;10.95;;;;;;;-5.98;100.00;93336.16;2096682;28;20028;-77
2024/01/09 04:09:22;;;;;;;18.25;10.77;;;;;;;-6.01;100.00;93344.56;2098091;28;20040;-79
2024/01/09 04:10:23;;;;;;;18.05;10.50;;;;;;;-5.89;100.00;93347.28;2097929;28;20024;-79
2024/01/09 04:11:24;;;;;;;19.65;11.00;;;;;;;-6.15;100.00;93340.25;2105181;28;20037;-79
2024/01/09 04:12:25;;;;;;;18.67;11.00;;;;;;;-6.14;100.00;93326.22;2100789;28;20478;-78
2024/01/09 04:13:26;;;;;;;19.38;11.07;;;;;;;-6.06;100.00;93335.06;2081385;28;20449;-78
2024/01/09 04:14:33;;;;;;;17.50;10.65;;;;;;;-5.97;100.00;93328.06;2089488;28;20063;-79
2024/01/09 04:15:34;;;;;;;20.25;11.00;;;;;;;-5.86;100.00;93331.06;2098408;28;20020;-77
2024/01/09 04:16:35;;;;;;;18.88;10.57;;;;;;;-6.03;100.00;93325.91;2098790;28;20449;-79
2024/01/09 04:17:36;;;;;;;19.42;11.50;;;;;;;-6.09;100.00;93336.47;2097091;28;20450;-79
2024/01/09 04:18:37;;;;;;;19.65;11.32;;;;;;;-6.01;100.00;93326.34;2104457;28;20035;-79
2024/01/09 04:19:39;;;;;;;18.73;10.25;;;;;;;-5.88;100.00;93328.03;2106234;28;20130;-79
2024/01/09 04:20:41;;;;;;;21.45;11.32;;;;;;;-5.90;100.00;93327.53;2106065;28;21398;-78
2024/01/09 04:21:46;;;;;;;20.48;11.20;;;;;;;-5.87;100.00;93330.31;2106131;28;20507;-77
2024/01/09 04:22:47;;;;;;;17.15;10.93;;;;;;;-5.86;100.00;93320.66;2106392;28;20449;-78
2024/01/09 04:23:48;;;;;;;19.85;11.15;;;;;;;-5.94;100.00;93324.06;2106114;28;20115;-78
2024/01/09 04:24:50;;;;;;;18.30;10.75;;;;;;;-5.82;100.00;93329.38;2105918;28;20884;-79
2024/01/09 04:25:50;;;;;;;17.42;10.90;;;;;;;-5.80;100.00;93329.81;2106135;28;20047;-79
2024/01/09 04:27:35;;;;;;;21.27;11.68;;;;;;;-5.95;100.00;93330.34;2105996;28;20993;-79
2024/01/09 04:28:36;;;;;;;16.90;10.20;;;;;;;-6.22;100.00;93329.56;2106189;28;20020;-78
2024/01/09 04:29:37;;;;;;;17.42;10.20;;;;;;;-6.18;100.00;93330.50;2105232;28;20446;-79
2024/01/09 04:30:38;;;;;;;16.23;10.55;;;;;;;-6.26;100.00;93330.47;2101379;28;20032;-77
2024/01/09 04:31:39;;;;;;;17.30;10.43;;;;;;;-5.92;100.00;93325.28;2097403;28;20020;-78
2024/01/09 04:32:40;;;;;;;18.77;11.10;;;;;;;-6.03;100.00;93328.50;2103080;28;20032;-77
2024/01/09 04:33:47;;;;;;;21.70;10.40;;;;;;;-6.01;100.00;93319.31;2098201;28;20036;-77
2024/01/09 04:34:48;;;;;;;16.23;9.98;;;;;;;-6.11;100.00;93324.81;2091981;28;20062;-78
2024/01/09 04:35:50;;;;;;;17.02;10.25;;;;;;;-6.05;100.00;93323.63;2097724;28;20458;-77
2024/01/09 04:37:43;;;;;;;16.80;10.77;;;;;;;-5.96;100.00;93323.63;2103630;28;20016;-79
2024/01/09 04:38:46;;;;;;;18.08;9.55;;;;;;;-5.98;100.00;93320.53;2098241;28;20440;-77
2024/01/09 04:39:47;;;;;;;19.35;9.95;;;;;;;-6.07;100.00;93320.53;2097478;28;20517;-78
2024/01/09 04:40:48;;;;;;;16.60;9.82;;;;;;;-6.25;100.00;93316.41;2105264;28;21001;-78
2024/01/09 04:41:49;;;;;;;16.73;10.48;;;;;;;-6.20;100.00;93319.63;2105424;28;20473;-78
2024/01/09 04:42:50;;;;;;;19.80;10.63;;;;;;;-6.13;100.00;93319.94;2104716;28;20020;-78
2024/01/09 04:43:51;;;;;;;17.15;10.63;;;;;;;-5.92;100.00;93324.53;2101604;28;20623;-78
2024/01/09 04:44:52;;;;;;;22.02;11.32;;;;;;;-5.97;100.00;93315.03;2106510;28;20826;-77
2024/01/09 04:45:53;;;;;;;19.27;11.02;;;;;;;-6.14;100.00;93330.66;2106581;28;20461;-79
2024/01/09 04:46:54;;;;;;;19.65;10.60;;;;;;;-6.20;100.00;93321.44;2106328;28;20096;-77
2024/01/09 04:47:55;;;;;;;18.90;10.80;;;;;;;-6.16;100.00;93325.72;2106112;28;20020;-77
2024/01/09 04:48:56;;;;;;;19.63;10.98;;;;;;;-6.11;100.00;93322.22;2096791;28;20576;-78
2024/01/09 04:49:57;;;;;;;17.45;10.70;;;;;;;-6.09;100.00;93325.28;2089583;28;20811;-78
2024/01/09 04:50:58;;;;;;;17.70;10.48;;;;;;;-6.25;100.00;93324.97;2097061;28;20908;-78
2024/01/09 04:51:59;;;;;;;21.45;10.88;;;;;;;-6.09;100.00;93325.28;2097113;28;20442;-77
2024/01/09 04:53:00;;;;;;;18.88;11.18;;;;;;;-6.02;100.00;93327.41;2097456;28;20025;-78
2024/01/09 04:54:01;;;;;;;21.63;11.82;;;;;;;-6.16;100.00;93327.56;2105855;28;20154;-78
2024/01/09 04:55:02;;;;;;;16.23;10.27;;;;;;;-6.11;100.00;93322.97;2105007;28;20057;-79
2024/01/09 04:56:03;;;;;;;19.35;10.88;;;;;;;-6.14;100.00;93323.59;2105586;28;20024;-78
2024/01/09 04:57:04;;;;;;;18.08;11.50;;;;;;;-6.27;100.00;93326.34;2105641;28;20503;-79
2024/01/09 04:58:06;;;;;;;20.10;11.18;;;;;;;-6.28;100.00;93328.16;2097671;28;20501;-79
2024/01/09 04:59:07;;;;;;;21.55;11.50;;;;;;;-6.07;100.00;93328.34;2105803;28;20517;-79
2024/01/09 05:00:10;;;;;;;18.30;10.35;;;;;;;-6.35;100.00;93327.88;2105556;28;20104;-78
2024/01/09 05:01:11;;;;;;;18.13;11.13;;;;;;;-6.46;100.00;93334.44;2102360;28;20016;-77
2024/01/09 05:02:12;;;;;;;24.52;11.80;;;;;;;-6.60;100.00;93334.56;2104910;28;20461;-78
2024/01/09 05:03:13;;;;;;;16.05;10.35;;;;;;;-6.33;100.00;93333.53;2101355;28;20020;-77
2024/01/09 05:04:14;;;;;;;16.65;10.52;;;;;;;-6.49;100.00;93335.81;2100682;28;20502;-78
2024/01/09 05:05:15;;;;;;;19.73;10.95;;;;;;;-6.33;100.00;93328.31;2098753;28;20962;-77
2024/01/09 05:06:17;;;;;;;17.50;11.13;;;;;;;-6.15;100.00;93336.91;2104107;28;20674;-77
2024/01/09 05:07:18;;;;;;;16.42;10.05;;;;;;;-6.33;100.00;93338.72;2100156;28;20027;-78
2024/01/09 05:08:19;;;;;;;17.60;10.77;;;;;;;-6.39;100.00;93335.50;2100599;28;20442;-78
2024/01/09 05:09:20;;;;;;;17.50;10.55;;;;;;;-6.42;100.00;93333.50;2084192;28;20025;-78
2024/01/09 05:10:21;;;;;;;20.25;11.50;;;;;;;-6.25;100.00;93335.38;2092351;28;20044;-77
2024/01/09 05:11:28;;;;;;;18.23;10.13;;;;;;;-6.28;100.00;93335.22;2104611;28;20052;-78
2024/01/09 05:12:31;;;;;;;19.17;10.90;;;;;;;-6.13;100.00;93332.19;2102587;28;20445;-78
2024/01/09 05:13:32;;;;;;;18.55;10.60;;;;;;;-6.15;100.00;93342.09;2099646;28;20082;-80
2024/01/09 05:14:33;;;;;;;19.15;10.82;;;;;;;-6.31;100.00;93335.84;2090694;28;20834;-78
2024/01/09 05:15:34;;;;;;;16.83;10.38;;;;;;;-6.40;100.00;93336.59;2097391;28;20021;-77
2024/01/09 05:16:34;;;;;;;19.20;11.18;;;;;;;-6.31;100.00;93338.44;2104731;28;20020;-78
2024/01/09 05:17:36;;;;;;;16.70;10.55;;;;;;;-6.55;100.00;93336.25;2105151;28;20399;-79
2024/01/09 05:18:36;;;;;;;17.08;10.63;;;;;;;-6.53;100.00;93334.88;2104914;28;20107;-78
2024/01/09 05:19:37;;;;;;;18.42;11.52;;;;;;;-6.23;100.00;93330.66;2105127;28;20510;-79
2024/01/09 05:20:38;;;;;;;19.58;10.75;;;;;;;-6.31;100.00;93330.63;2106276;28;20153;-78
2024/01/09 05:21:39;;;;;;;19.52;11.68;;;;;;;-6.20;100.00;93334.47;2097281;28;20028;-78
2024/01/09 05:22:40;;;;;;;15.93;10.60;;;;;;;-6.35;100.00;93326.03;2096905;28;20114;-79
2024/01/09 05:23:41;;;;;;;18.55;11.38;;;;;;;-6.57;100.00;93331.34;2105654;28;20154;-79
2024/01/09 05:24:42;;;;;;;18.45;11.32;;;;;;;-6.34;100.00;93324.19;2097107;28;20508;-78